Time;durP1;ratioP1;P1;durP2;ratioP2;P2;SDS_P1;SDS_P2;PMS_P1;PMS_P2;Temp;Humidity;BMP_temperature;BMP_pressure;BME280_temperature;BME280_humidity;BME280_pressure;Samples;Min_cycle;Max_cycle;Signal;HPM_P1;HPM_P2
2022/04/03 00:01:38;;;;;;;;;23.00;22.25;;;;;;;;5122985;27;45255;-76
2022/04/03 00:04:04;;;;;;;;;21.50;20.25;;;;;;;;5122837;27;45291;-76
2022/04/03 00:06:30;;;;;;;;;21.25;17.00;;;;;;;;5122742;27;45272;-76
2022/04/03 00:08:56;;;;;;;;;20.50;18.00;;;;;;;;5122883;27;45266;-76
2022/04/03 00:11:21;;;;;;;;;19.25;19.25;;;;;;;;5122670;27;45464;-76
2022/04/03 00:13:48;;;;;;;;;26.00;22.00;;;;;;;;5122645;27;45933;-77
2022/04/03 00:16:14;;;;;;;;;24.75;23.75;;;;;;;;5108171;27;45328;-76
2022/04/03 00:18:39;;;;;;;;;27.00;25.25;;;;;;;;5102097;27;45367;-76
2022/04/03 00:21:04;;;;;;;;;30.75;30.75;;;;;;;;5100665;27;46446;-76
2022/04/03 00:23:29;;;;;;;;;30.25;28.25;;;;;;;;5101524;27;46630;-76
2022/04/03 00:25:55;;;;;;;;;27.00;27.00;;;;;;;;5101922;27;45381;-76
2022/04/03 00:28:20;;;;;;;;;26.00;22.75;;;;;;;;5100769;27;45240;-76
2022/04/03 00:30:46;;;;;;;;;30.50;27.25;;;;;;;;5101594;27;45261;-76
2022/04/03 00:33:11;;;;;;;;;41.00;34.75;;;;;;;;5101752;27;46143;-76
2022/04/03 00:35:37;;;;;;;;;47.00;38.25;;;;;;;;5101815;27;45344;-76
2022/04/03 00:38:02;;;;;;;;;33.50;33.25;;;;;;;;5101767;27;45384;-76
2022/04/03 00:40:28;;;;;;;;;38.00;32.50;;;;;;;;5101707;27;45358;-76
2022/04/03 00:42:53;;;;;;;;;39.75;37.50;;;;;;;;5101899;27;45356;-76
2022/04/03 00:45:19;;;;;;;;;27.00;25.50;;;;;;;;5101668;27;45325;-76
2022/04/03 00:47:45;;;;;;;;;26.25;20.75;;;;;;;;5101760;27;45439;-76
2022/04/03 00:50:10;;;;;;;;;22.00;22.00;;;;;;;;5101642;27;45336;-76
2022/04/03 00:52:35;;;;;;;;;16.75;16.25;;;;;;;;5101468;27;45281;-77
2022/04/03 00:55:01;;;;;;;;;22.50;20.75;;;;;;;;5101421;27;45312;-76
2022/04/03 00:57:26;;;;;;;;;21.00;20.00;;;;;;;;5101588;27;45329;-76
2022/04/03 00:59:52;;;;;;;;;21.50;20.75;;;;;;;;5101282;27;45140;-76
2022/04/03 01:02:17;;;;;;;;;20.00;20.00;;;;;;;;5099860;27;47283;-76
2022/04/03 01:04:42;;;;;;;;;21.75;19.25;;;;;;;;5100204;27;45744;-76
2022/04/03 01:07:08;;;;;;;;;20.50;20.50;;;;;;;;5101282;27;45297;-76
2022/04/03 01:09:33;;;;;;;;;24.50;24.25;;;;;;;;5101006;27;45466;-76
2022/04/03 01:11:59;;;;;;;;;22.25;20.50;;;;;;;;5099729;27;47634;-75
2022/04/03 01:14:35;;;;;;;;;21.00;21.00;;;;;;;;5101270;27;45389;-76
2022/04/03 01:17:01;;;;;;;;;23.00;21.00;;;;;;;;5079501;28;45432;-76
2022/04/03 01:19:26;;;;;;;;;24.75;20.50;;;;;;;;5080594;27;45695;-76
2022/04/03 01:21:51;;;;;;;;;21.50;19.25;;;;;;;;5080444;27;46056;-76
2022/04/03 01:24:17;;;;;;;;;22.00;22.00;;;;;;;;5080334;27;45395;-76
2022/04/03 01:26:43;;;;;;;;;21.50;20.50;;;;;;;;5079346;28;45322;-76
2022/04/03 01:29:09;;;;;;;;;24.00;22.25;;;;;;;;5078859;28;47384;-76
2022/04/03 01:31:34;;;;;;;;;20.25;19.50;;;;;;;;5079298;27;45828;-76
2022/04/03 01:33:59;;;;;;;;;22.25;20.25;;;;;;;;5079086;28;45342;-76
2022/04/03 01:36:25;;;;;;;;;18.25;16.50;;;;;;;;5080449;27;45267;-76
2022/04/03 01:38:50;;;;;;;;;21.50;18.75;;;;;;;;5080244;27;45418;-76
2022/04/03 01:41:15;;;;;;;;;21.25;19.75;;;;;;;;5080285;28;45614;-76
2022/04/03 01:43:40;;;;;;;;;18.75;17.75;;;;;;;;5080351;27;45350;-76
2022/04/03 01:46:05;;;;;;;;;19.50;19.50;;;;;;;;5080367;27;45203;-76
2022/04/03 01:48:32;;;;;;;;;21.75;21.75;;;;;;;;5078898;28;46289;-76
2022/04/03 01:50:57;;;;;;;;;21.50;21.50;;;;;;;;5080226;28;46261;-76
2022/04/03 01:53:25;;;;;;;;;19.75;19.50;;;;;;;;5078228;28;45255;-76
2022/04/03 01:56:01;;;;;;;;;14.25;11.00;;;;;;;;5080334;27;45632;-76
2022/04/03 01:58:26;;;;;;;;;26.00;23.00;;;;;;;;5079936;27;45353;-76
2022/04/03 02:00:51;;;;;;;;;19.75;17.75;;;;;;;;5079923;27;45285;-76
2022/04/03 02:03:17;;;;;;;;;20.50;20.50;;;;;;;;5079994;28;45398;-76
2022/04/03 02:05:43;;;;;;;;;21.25;20.25;;;;;;;;5080112;28;45381;-76
2022/04/03 02:08:08;;;;;;;;;25.50;22.75;;;;;;;;5078273;28;47474;-76
2022/04/03 02:10:33;;;;;;;;;22.50;22.00;;;;;;;;5078496;28;46982;-76
2022/04/03 02:12:58;;;;;;;;;21.25;19.25;;;;;;;;5079858;27;45267;-76
2022/04/03 02:15:24;;;;;;;;;24.75;24.50;;;;;;;;5094431;27;45310;-76
2022/04/03 02:17:49;;;;;;;;;26.50;24.50;;;;;;;;5120859;27;45159;-76
2022/04/03 02:20:14;;;;;;;;;26.50;24.25;;;;;;;;5120833;27;46024;-76
2022/04/03 02:22:40;;;;;;;;;26.75;26.25;;;;;;;;5119433;27;46002;-76
2022/04/03 02:25:09;;;;;;;;;32.25;32.25;;;;;;;;5120739;27;45355;-76
2022/04/03 02:27:34;;;;;;;;;26.00;25.00;;;;;;;;5120648;27;45993;-76
2022/04/03 02:30:00;;;;;;;;;29.75;26.50;;;;;;;;5118720;27;48318;-76
2022/04/03 02:32:25;;;;;;;;;26.75;23.75;;;;;;;;5120841;27;45321;-76
2022/04/03 02:34:51;;;;;;;;;26.00;24.00;;;;;;;;5120918;27;45348;-76
2022/04/03 02:37:16;;;;;;;;;25.75;22.75;;;;;;;;5120477;27;45360;-77
2022/04/03 02:39:41;;;;;;;;;38.25;32.50;;;;;;;;5118914;27;47335;-76
2022/04/03 02:42:07;;;;;;;;;37.50;34.25;;;;;;;;5121246;27;45710;-76
2022/04/03 02:44:32;;;;;;;;;38.50;35.00;;;;;;;;5124394;27;45303;-76
2022/04/03 02:46:57;;;;;;;;;27.50;26.00;;;;;;;;5124056;27;45312;-76
2022/04/03 02:49:23;;;;;;;;;26.25;23.00;;;;;;;;5123904;27;45254;-76
2022/04/03 02:51:48;;;;;;;;;33.75;29.75;;;;;;;;5124124;27;45297;-76
2022/04/03 02:54:13;;;;;;;;;31.75;28.50;;;;;;;;5123867;27;45360;-76
2022/04/03 02:56:38;;;;;;;;;26.50;25.50;;;;;;;;5124011;27;45312;-76
2022/04/03 02:59:03;;;;;;;;;27.00;27.00;;;;;;;;5124134;27;45471;-76
2022/04/03 03:01:28;;;;;;;;;28.50;28.50;;;;;;;;5123970;27;45287;-76
2022/04/03 03:03:54;;;;;;;;;22.00;21.00;;;;;;;;5122665;27;45381;-76
2022/04/03 03:06:19;;;;;;;;;26.75;25.50;;;;;;;;5123686;27;45531;-76
2022/04/03 03:08:44;;;;;;;;;30.75;28.25;;;;;;;;5123543;27;45367;-76
2022/04/03 03:11:10;;;;;;;;;26.50;22.50;;;;;;;;5124003;27;45215;-76
2022/04/03 03:13:36;;;;;;;;;25.25;25.25;;;;;;;;5123881;27;45522;-76
2022/04/03 03:16:02;;;;;;;;;28.00;26.75;;;;;;;;5110889;27;45257;-76
2022/04/03 03:18:27;;;;;;;;;23.25;21.00;;;;;;;;5101331;27;47193;-76
2022/04/03 03:20:52;;;;;;;;;30.00;26.50;;;;;;;;5103098;27;45225;-76
2022/04/03 03:23:18;;;;;;;;;24.25;21.25;;;;;;;;5102873;27;45203;-76
2022/04/03 03:25:45;;;;;;;;;20.00;20.00;;;;;;;;5102883;27;45440;-76
2022/04/03 03:28:10;;;;;;;;;22.50;22.50;;;;;;;;5102843;27;46017;-76
2022/04/03 03:30:36;;;;;;;;;22.75;22.25;;;;;;;;5102439;27;45507;-76
2022/04/03 03:33:01;;;;;;;;;21.00;20.75;;;;;;;;5103041;27;45374;-76
2022/04/03 03:35:26;;;;;;;;;23.25;23.00;;;;;;;;5102700;27;45357;-76
2022/04/03 03:37:52;;;;;;;;;18.00;16.75;;;;;;;;5102383;27;45381;-76
2022/04/03 03:40:17;;;;;;;;;22.00;19.75;;;;;;;;5102746;27;45410;-76
2022/04/03 03:42:43;;;;;;;;;20.50;20.50;;;;;;;;5101565;27;45290;-76
2022/04/03 03:45:09;;;;;;;;;27.00;22.75;;;;;;;;5101192;27;47137;-76
2022/04/03 03:47:34;;;;;;;;;23.50;22.50;;;;;;;;5102374;27;45479;-76
2022/04/03 03:49:59;;;;;;;;;24.75;23.00;;;;;;;;5101138;27;45286;-76
2022/04/03 03:52:24;;;;;;;;;21.50;20.00;;;;;;;;5102277;27;45570;-76
2022/04/03 03:54:51;;;;;;;;;20.50;19.75;;;;;;;;5101944;27;45497;-76
2022/04/03 03:57:17;;;;;;;;;20.00;19.00;;;;;;;;5102357;27;45956;-76
2022/04/03 03:59:43;;;;;;;;;21.25;19.75;;;;;;;;5102250;27;45292;-76
2022/04/03 04:02:08;;;;;;;;;22.00;21.00;;;;;;;;5101169;27;45498;-76
2022/04/03 04:04:34;;;;;;;;;20.75;20.75;;;;;;;;5102231;27;45203;-76
2022/04/03 04:06:59;;;;;;;;;22.50;20.50;;;;;;;;5102005;27;45811;-76
2022/04/03 04:09:24;;;;;;;;;24.00;22.75;;;;;;;;5102128;27;45408;-76
2022/04/03 04:11:49;;;;;;;;;23.00;21.25;;;;;;;;5102392;27;45334;-76
2022/04/03 04:14:15;;;;;;;;;19.25;16.00;;;;;;;;5101949;27;45370;-77
2022/04/03 04:16:42;;;;;;;;;21.50;20.50;;;;;;;;5120113;27;45346;-76
2022/04/03 04:19:07;;;;;;;;;26.75;22.00;;;;;;;;5122810;27;45409;-76
2022/04/03 04:21:33;;;;;;;;;19.75;19.75;;;;;;;;5122667;27;45511;-76
2022/04/03 04:23:58;;;;;;;;;19.75;18.50;;;;;;;;5122536;27;45366;-76
2022/04/03 04:26:23;;;;;;;;;23.00;20.50;;;;;;;;5122198;27;46369;-76
2022/04/03 04:28:50;;;;;;;;;18.25;17.75;;;;;;;;5122667;27;45318;-76
2022/04/03 04:31:15;;;;;;;;;21.25;18.00;;;;;;;;5122455;27;45507;-76
2022/04/03 04:33:41;;;;;;;;;25.25;22.25;;;;;;;;5122388;27;45305;-76
2022/04/03 04:36:07;;;;;;;;;27.00;24.00;;;;;;;;5121202;27;47971;-76
2022/04/03 04:38:32;;;;;;;;;20.00;19.00;;;;;;;;5122318;27;45728;-76
2022/04/03 04:40:57;;;;;;;;;18.75;18.75;;;;;;;;5121076;27;45381;-76
2022/04/03 04:43:22;;;;;;;;;20.00;19.00;;;;;;;;5122384;27;45233;-76
2022/04/03 04:45:48;;;;;;;;;19.00;18.00;;;;;;;;5122220;27;45485;-76
2022/04/03 04:48:13;;;;;;;;;19.00;19.00;;;;;;;;5120862;27;45241;-76
2022/04/03 04:50:38;;;;;;;;;21.75;18.50;;;;;;;;5122437;27;45229;-76
2022/04/03 04:53:03;;;;;;;;;20.50;19.25;;;;;;;;5121916;27;45361;-76
2022/04/03 04:55:29;;;;;;;;;19.25;19.25;;;;;;;;5122020;27;45330;-77
2022/04/03 04:57:55;;;;;;;;;17.50;16.75;;;;;;;;5120871;27;45390;-76
2022/04/03 05:00:21;;;;;;;;;22.25;20.25;;;;;;;;5122308;27;45348;-76
2022/04/03 05:02:47;;;;;;;;;21.00;18.00;;;;;;;;5121862;27;45395;-76
2022/04/03 05:05:13;;;;;;;;;18.00;18.00;;;;;;;;5120819;27;45552;-76
2022/04/03 05:07:39;;;;;;;;;18.75;16.50;;;;;;;;5121713;27;45371;-76
2022/04/03 05:10:04;;;;;;;;;19.50;17.25;;;;;;;;5120546;27;45348;-76
2022/04/03 05:12:29;;;;;;;;;19.50;19.50;;;;;;;;5121879;27;45304;-76
2022/04/03 05:14:55;;;;;;;;;17.00;15.25;;;;;;;;5118720;27;46568;-76
2022/04/03 05:17:21;;;;;;;;;17.25;17.25;;;;;;;;5099692;27;45323;-76
2022/04/03 05:19:46;;;;;;;;;18.50;18.50;;;;;;;;5101343;27;45241;-76
2022/04/03 05:22:11;;;;;;;;;20.50;20.00;;;;;;;;5099429;27;46439;-77
2022/04/03 05:24:37;;;;;;;;;20.75;18.25;;;;;;;;5099490;27;47754;-76
2022/04/03 05:27:02;;;;;;;;;21.50;20.75;;;;;;;;5101078;27;45242;-76
2022/04/03 05:29:27;;;;;;;;;19.50;18.75;;;;;;;;5101004;27;45265;-76
2022/04/03 05:31:53;;;;;;;;;20.25;17.75;;;;;;;;5100654;27;45337;-76
2022/04/03 05:34:19;;;;;;;;;16.50;14.50;;;;;;;;5099515;27;48416;-76
2022/04/03 05:36:44;;;;;;;;;17.75;15.75;;;;;;;;5100692;27;45387;-76
2022/04/03 05:39:09;;;;;;;;;16.50;16.00;;;;;;;;5100897;27;45451;-76
2022/04/03 05:41:34;;;;;;;;;20.00;17.25;;;;;;;;5100718;27;45347;-76
2022/04/03 05:44:00;;;;;;;;;20.50;18.75;;;;;;;;5100858;27;46218;-76
2022/04/03 05:46:25;;;;;;;;;19.25;18.75;;;;;;;;5099278;27;45431;-76
2022/04/03 05:48:50;;;;;;;;;18.00;17.50;;;;;;;;5101053;27;45501;-76
2022/04/03 05:51:15;;;;;;;;;17.00;16.25;;;;;;;;5099441;27;46047;-76
2022/04/03 05:53:41;;;;;;;;;17.75;16.00;;;;;;;;5098834;27;47367;-74
2022/04/03 05:56:06;;;;;;;;;17.50;17.00;;;;;;;;5100584;27;45393;-75
2022/04/03 05:58:31;;;;;;;;;16.50;16.00;;;;;;;;5100776;27;45831;-76
2022/04/03 06:00:57;;;;;;;;;16.75;16.75;;;;;;;;5097151;27;45582;-76
2022/04/03 06:03:22;;;;;;;;;21.00;18.50;;;;;;;;5090048;27;45392;-76
2022/04/03 06:05:47;;;;;;;;;17.75;17.00;;;;;;;;5098295;27;45247;-76
2022/04/03 06:08:13;;;;;;;;;20.50;19.25;;;;;;;;5085462;27;45369;-76
2022/04/03 06:10:38;;;;;;;;;17.25;17.25;;;;;;;;5080706;27;45540;-77
2022/04/03 06:13:05;;;;;;;;;19.50;19.50;;;;;;;;5079982;27;45301;-77
2022/04/03 06:15:34;;;;;;;;;18.00;17.00;;;;;;;;5096038;27;45346;-77
2022/04/03 06:18:03;;;;;;;;;16.25;15.75;;;;;;;;5120918;27;45442;-77
2022/04/03 06:20:29;;;;;;;;;24.25;20.50;;;;;;;;5090851;27;45394;-77
2022/04/03 06:22:54;;;;;;;;;21.50;17.75;;;;;;;;5099627;27;45974;-77
2022/04/03 06:25:20;;;;;;;;;17.25;17.25;;;;;;;;5100091;27;45356;-77
2022/04/03 06:27:45;;;;;;;;;10.25;7.00;;;;;;;;5100317;27;45466;-76
2022/04/03 06:30:11;;;;;;;;;15.00;14.75;;;;;;;;5099788;27;45409;-75
2022/04/03 06:32:36;;;;;;;;;17.25;16.75;;;;;;;;5099914;27;45333;-76
2022/04/03 06:35:02;;;;;;;;;17.75;17.75;;;;;;;;5100156;27;45312;-76
2022/04/03 06:37:27;;;;;;;;;13.00;13.00;;;;;;;;5100237;27;45682;-76
2022/04/03 06:39:52;;;;;;;;;16.25;16.25;;;;;;;;5098387;27;45877;-75
2022/04/03 06:42:18;;;;;;;;;16.75;16.75;;;;;;;;5096779;27;46663;-75
2022/04/03 06:44:43;;;;;;;;;19.00;16.50;;;;;;;;5079369;27;45348;-75
2022/04/03 06:47:09;;;;;;;;;17.00;17.00;;;;;;;;5078386;28;45335;-74
2022/04/03 06:49:35;;;;;;;;;16.50;15.25;;;;;;;;5079381;27;45551;-74
2022/04/03 06:52:00;;;;;;;;;18.75;18.75;;;;;;;;5079187;27;45993;-74
2022/04/03 06:54:25;;;;;;;;;19.25;18.00;;;;;;;;5079190;27;45390;-74
2022/04/03 06:56:54;;;;;;;;;18.25;16.50;;;;;;;;5086189;27;45523;-74
2022/04/03 06:59:20;;;;;;;;;14.75;14.50;;;;;;;;5078624;27;45562;-75
2022/04/03 07:01:45;;;;;;;;;26.50;24.75;;;;;;;;5080007;27;45431;-74
2022/04/03 07:04:10;;;;;;;;;18.00;17.50;;;;;;;;5079153;27;45293;-74
2022/04/03 07:06:36;;;;;;;;;24.00;22.25;;;;;;;;5079145;27;45280;-75
2022/04/03 07:09:01;;;;;;;;;14.25;14.00;;;;;;;;5079133;28;45500;-73
2022/04/03 07:11:26;;;;;;;;;21.25;18.25;;;;;;;;5079006;27;46114;-73
2022/04/03 07:13:51;;;;;;;;;19.50;17.50;;;;;;;;5079084;28;45198;-73
2022/04/03 07:16:17;;;;;;;;;19.75;19.00;;;;;;;;5107099;27;45348;-73
2022/04/03 07:18:42;;;;;;;;;24.00;20.00;;;;;;;;5120036;27;45441;-73
2022/04/03 07:21:08;;;;;;;;;17.50;17.50;;;;;;;;5118607;27;47007;-74
2022/04/03 07:23:33;;;;;;;;;22.75;18.00;;;;;;;;5118523;27;45189;-73
2022/04/03 07:25:58;;;;;;;;;19.25;18.75;;;;;;;;5120087;27;45316;-73
2022/04/03 07:28:23;;;;;;;;;17.50;16.50;;;;;;;;5121092;27;45402;-73
2022/04/03 07:30:49;;;;;;;;;21.00;19.50;;;;;;;;5123205;27;45354;-74
2022/04/03 07:33:14;;;;;;;;;20.25;20.25;;;;;;;;5123389;27;45346;-72
2022/04/03 07:35:40;;;;;;;;;23.00;21.00;;;;;;;;5122186;27;45438;-74
2022/04/03 07:38:05;;;;;;;;;18.25;18.25;;;;;;;;5122981;27;45570;-74
2022/04/03 07:40:31;;;;;;;;;19.00;17.75;;;;;;;;5123356;27;45347;-74
2022/04/03 07:42:56;;;;;;;;;23.25;21.25;;;;;;;;5123226;27;45302;-73
2022/04/03 07:45:22;;;;;;;;;30.75;30.25;;;;;;;;5121898;27;45379;-75
2022/04/03 07:47:51;;;;;;;;;17.00;16.50;;;;;;;;5120596;27;46122;-76
2022/04/03 07:50:17;;;;;;;;;29.00;27.25;;;;;;;;5090021;27;46993;-76
2022/04/03 07:52:42;;;;;;;;;16.25;16.25;;;;;;;;5078819;27;45946;-77
2022/04/03 07:55:10;;;;;;;;;20.50;19.75;;;;;;;;5080338;27;45238;-77
2022/04/03 07:57:36;;;;;;;;;22.00;20.25;;;;;;;;5080383;28;47239;-76
2022/04/03 08:00:01;;;;;;;;;14.00;14.00;;;;;;;;5082041;27;45774;-75
2022/04/03 08:02:26;;;;;;;;;20.50;16.50;;;;;;;;5081761;27;45409;-74
2022/04/03 08:04:51;;;;;;;;;21.25;20.00;;;;;;;;5082078;27;45313;-75
2022/04/03 08:07:16;;;;;;;;;20.50;20.50;;;;;;;;5081615;27;45357;-74
2022/04/03 08:09:41;;;;;;;;;21.50;18.25;;;;;;;;5081710;28;45867;-77
2022/04/03 08:12:07;;;;;;;;;15.75;15.50;;;;;;;;5082034;27;45786;-75
2022/04/03 08:14:32;;;;;;;;;17.50;15.50;;;;;;;;5081745;27;45252;-75
2022/04/03 08:16:57;;;;;;;;;22.50;20.00;;;;;;;;5081787;28;45338;-74
2022/04/03 08:19:23;;;;;;;;;18.50;18.50;;;;;;;;5081598;28;45341;-75
2022/04/03 08:21:48;;;;;;;;;19.25;18.00;;;;;;;;5081512;28;45326;-75
2022/04/03 08:24:13;;;;;;;;;18.50;16.75;;;;;;;;5080250;28;45532;-74
2022/04/03 08:26:38;;;;;;;;;19.75;18.50;;;;;;;;5080181;28;46215;-75
2022/04/03 08:29:04;;;;;;;;;23.50;19.75;;;;;;;;5080450;28;47374;-76
2022/04/03 08:31:29;;;;;;;;;18.25;17.25;;;;;;;;5083073;27;45232;-77
2022/04/03 08:33:54;;;;;;;;;18.25;17.25;;;;;;;;5081745;27;45317;-76
2022/04/03 08:36:19;;;;;;;;;15.75;15.50;;;;;;;;5081935;27;47154;-75
2022/04/03 08:38:45;;;;;;;;;21.50;17.50;;;;;;;;5079740;27;47017;-74
2022/04/03 08:41:11;;;;;;;;;16.25;16.25;;;;;;;;5081415;27;45410;-74
2022/04/03 08:43:38;;;;;;;;;16.75;16.00;;;;;;;;5081393;27;45234;-74
2022/04/03 08:46:05;;;;;;;;;15.75;14.00;;;;;;;;5079761;28;46972;-74
2022/04/03 08:48:31;;;;;;;;;18.50;18.00;;;;;;;;5081080;27;45345;-74
2022/04/03 08:50:56;;;;;;;;;17.00;14.75;;;;;;;;5080871;27;45435;-75
2022/04/03 08:53:22;;;;;;;;;20.00;17.00;;;;;;;;5080782;27;45368;-74
2022/04/03 08:55:48;;;;;;;;;16.50;16.50;;;;;;;;5080761;27;45486;-75
2022/04/03 08:58:13;;;;;;;;;18.00;18.00;;;;;;;;5079271;28;47030;-76
2022/04/03 09:00:39;;;;;;;;;14.50;14.50;;;;;;;;5080880;27;45212;-75
2022/04/03 09:03:04;;;;;;;;;16.00;16.00;;;;;;;;5080049;28;45207;-75
2022/04/03 09:05:40;;;;;;;;;16.00;16.00;;;;;;;;5080809;27;45504;-75
2022/04/03 09:08:05;;;;;;;;;12.00;12.00;;;;;;;;5080566;27;45372;-76
2022/04/03 09:10:31;;;;;;;;;12.00;11.00;;;;;;;;5079251;28;45625;-75
2022/04/03 09:12:57;;;;;;;;;14.00;10.75;;;;;;;;5081084;28;45264;-75
2022/04/03 09:15:22;;;;;;;;;13.50;12.50;;;;;;;;5094319;27;45284;-75
2022/04/03 09:17:49;;;;;;;;;16.75;16.50;;;;;;;;5121158;27;45380;-74
2022/04/03 09:20:18;;;;;;;;;10.25;10.25;;;;;;;;5115737;27;45673;-74
2022/04/03 09:22:44;;;;;;;;;11.50;11.00;;;;;;;;5079143;27;45503;-77
2022/04/03 09:25:10;;;;;;;;;13.25;12.25;;;;;;;;5079056;27;45603;-76
2022/04/03 09:27:45;;;;;;;;;12.00;12.00;;;;;;;;5079134;27;45517;-75
2022/04/03 09:30:10;;;;;;;;;9.75;9.75;;;;;;;;5078767;27;45320;-76
2022/04/03 09:32:44;;;;;;;;;9.75;9.75;;;;;;;;5079115;27;45357;-76
2022/04/03 09:35:10;;;;;;;;;7.75;5.50;;;;;;;;5078976;27;45429;-75
2022/04/03 09:37:36;;;;;;;;;8.00;8.00;;;;;;;;5077247;27;48233;-75
2022/04/03 09:40:03;;;;;;;;;9.50;7.50;;;;;;;;5078702;27;45334;-76
2022/04/03 09:42:29;;;;;;;;;5.25;5.25;;;;;;;;5078986;27;45554;-78
2022/04/03 09:44:55;;;;;;;;;6.00;5.50;;;;;;;;5078855;27;45523;-76
2022/04/03 09:47:21;;;;;;;;;6.50;6.50;;;;;;;;5077671;27;47060;-76
2022/04/03 09:49:46;;;;;;;;;7.25;7.25;;;;;;;;5078895;27;45408;-75
2022/04/03 09:52:12;;;;;;;;;6.00;6.00;;;;;;;;5079679;27;45356;-76
2022/04/03 09:54:39;;;;;;;;;6.50;6.50;;;;;;;;5079995;27;45215;-76
2022/04/03 09:57:25;;;;;;;;;13.00;12.00;;;;;;;;5079251;28;47946;-77
2022/04/03 09:59:52;;;;;;;;;8.50;8.50;;;;;;;;5079968;28;45314;-75
2022/04/03 10:02:17;;;;;;;;;7.50;7.50;;;;;;;;5080219;27;45329;-75
2022/04/03 10:04:45;;;;;;;;;12.75;11.25;;;;;;;;5079855;27;45334;-76
2022/04/03 10:07:13;;;;;;;;;8.00;6.50;;;;;;;;5079878;27;45310;-76
2022/04/03 10:09:42;;;;;;;;;8.00;6.75;;;;;;;;5079735;27;45375;-75
2022/04/03 10:12:08;;;;;;;;;7.00;7.00;;;;;;;;5080106;27;45271;-75
2022/04/03 10:14:34;;;;;;;;;5.00;5.00;;;;;;;;5078644;27;46420;-75
2022/04/03 10:16:59;;;;;;;;;6.00;6.00;;;;;;;;5119529;27;47206;-76
2022/04/03 10:19:24;;;;;;;;;4.00;4.00;;;;;;;;5120867;27;45376;-76
2022/04/03 10:21:53;;;;;;;;;5.50;5.50;;;;;;;;5119556;27;45287;-76
2022/04/03 10:24:19;;;;;;;;;3.25;3.00;;;;;;;;5120509;27;45408;-76
2022/04/03 10:26:56;;;;;;;;;3.33;3.33;;;;;;;;5119844;27;47631;-77
2022/04/03 10:29:22;;;;;;;;;4.00;4.00;;;;;;;;5122886;27;45336;-76
2022/04/03 10:32:03;;;;;;;;;3.00;2.00;;;;;;;;5121213;27;45271;-77
2022/04/03 10:34:28;;;;;;;;;3.00;3.00;;;;;;;;5120107;27;46469;-77
2022/04/03 10:36:54;;;;;;;;;3.33;3.33;;;;;;;;5121894;27;46279;-78
2022/04/03 10:39:24;;;;;;;;;3.00;3.00;;;;;;;;5119389;27;46283;-75
2022/04/03 10:41:49;;;;;;;;;4.67;4.00;;;;;;;;5120904;27;45334;-76
2022/04/03 10:44:16;;;;;;;;;3.00;2.67;;;;;;;;5120335;27;45331;-77
2022/04/03 10:47:00;;;;;;;;;4.33;4.33;;;;;;;;5120378;27;45331;-76
2022/04/03 10:49:28;;;;;;;;;4.33;4.33;;;;;;;;5120491;27;45354;-76
2022/04/03 10:51:57;;;;;;;;;4.00;4.00;;;;;;;;5119553;27;45359;-76
2022/04/03 10:54:30;;;;;;;;;2.00;2.00;;;;;;;;5082464;27;45502;-77
2022/04/03 10:57:15;;;;;;;;;10.33;8.33;;;;;;;;5097467;27;45528;-76
2022/04/03 10:59:40;;;;;;;;;3.00;3.00;;;;;;;;5097428;27;46232;-76
2022/04/03 11:02:12;;;;;;;;;3.00;3.00;;;;;;;;5096369;27;45502;-76
2022/04/03 11:04:37;;;;;;;;;2.00;2.00;;;;;;;;5081915;27;45243;-76
2022/04/03 11:07:12;;;;;;;;;2.33;1.00;;;;;;;;5092318;27;45452;-76
2022/04/03 11:09:41;;;;;;;;;6.67;6.67;;;;;;;;5088625;27;45358;-76
2022/04/03 11:12:06;;;;;;;;;5.67;5.67;;;;;;;;5082186;27;45372;-76
2022/04/03 11:14:55;;;;;;;;;4.00;4.00;;;;;;;;5085833;27;45479;-76
2022/04/03 11:17:39;;;;;;;;;4.00;4.00;;;;;;;;5095496;27;47934;-79
2022/04/03 11:20:04;;;;;;;;;5.67;5.67;;;;;;;;5098923;27;45336;-76
2022/04/03 11:22:31;;;;;;;;;4.67;3.00;;;;;;;;5081059;27;45385;-75
2022/04/03 11:24:57;;;;;;;;;5.67;5.67;;;;;;;;5081565;27;45508;-76
2022/04/03 11:27:22;;;;;;;;;4.00;4.00;;;;;;;;5080556;27;46304;-76
2022/04/03 11:29:49;;;;;;;;;5.00;5.00;;;;;;;;5085587;27;45410;-75
2022/04/03 11:32:15;;;;;;;;;5.67;5.67;;;;;;;;5084400;27;45337;-75
2022/04/03 11:34:41;;;;;;;;;6.00;6.00;;;;;;;;5081677;27;45318;-75
2022/04/03 11:37:08;;;;;;;;;4.00;4.00;;;;;;;;5082706;27;45230;-76
2022/04/03 11:39:35;;;;;;;;;6.00;6.00;;;;;;;;5100254;27;45303;-77
2022/04/03 11:42:05;;;;;;;;;4.67;4.67;;;;;;;;5100715;27;45375;-76
2022/04/03 11:44:31;;;;;;;;;8.33;7.33;;;;;;;;5101573;27;45604;-76
2022/04/03 11:46:56;;;;;;;;;5.33;4.67;;;;;;;;5101697;27;46340;-76
2022/04/03 11:49:25;;;;;;;;;4.33;4.33;;;;;;;;5101025;27;45741;-76
2022/04/03 11:51:54;;;;;;;;;5.00;5.00;;;;;;;;5101580;27;45340;-76
2022/04/03 11:54:19;;;;;;;;;8.00;7.00;;;;;;;;5101358;27;45522;-76
2022/04/03 11:56:44;;;;;;;;;6.33;6.33;;;;;;;;5089140;27;46329;-76
2022/04/03 11:59:10;;;;;;;;;4.00;4.00;;;;;;;;5081038;27;45408;-76
2022/04/03 12:01:37;;;;;;;;;6.33;6.33;;;;;;;;5085368;27;45617;-76
2022/04/03 12:04:02;;;;;;;;;9.33;7.33;;;;;;;;5086099;27;45671;-76
2022/04/03 12:06:29;;;;;;;;;4.33;4.33;;;;;;;;5080832;27;46407;-76
2022/04/03 12:08:54;;;;;;;;;4.33;4.33;;;;;;;;5080320;27;45574;-75
2022/04/03 12:11:23;;;;;;;;;4.67;4.67;;;;;;;;5079751;27;45522;-76
2022/04/03 12:13:48;;;;;;;;;5.33;5.33;;;;;;;;5078562;27;45563;-77
2022/04/03 12:16:21;;;;;;;;;3.67;3.67;;;;;;;;5083533;27;47372;-78
2022/04/03 12:18:52;;;;;;;;;4.00;4.00;;;;;;;;5092652;27;46062;-75
2022/04/03 12:21:17;;;;;;;;;4.33;4.33;;;;;;;;5082173;27;45329;-77
2022/04/03 12:24:05;;;;;;;;;4.67;4.67;;;;;;;;5080458;27;45862;-77
2022/04/03 12:26:31;;;;;;;;;4.00;4.00;;;;;;;;5096353;27;48175;-76
2022/04/03 12:28:56;;;;;;;;;3.00;3.00;;;;;;;;5083270;27;45286;-76
2022/04/03 12:31:25;;;;;;;;;4.33;4.33;;;;;;;;5101002;27;45307;-76
2022/04/03 12:33:50;;;;;;;;;5.67;4.67;;;;;;;;5102153;27;45341;-77
2022/04/03 12:36:16;;;;;;;;;5.67;5.67;;;;;;;;5101645;27;45278;-77
2022/04/03 12:38:47;;;;;;;;;5.00;3.00;;;;;;;;5099932;27;45835;-77
2022/04/03 12:41:13;;;;;;;;;3.33;1.67;;;;;;;;5102073;27;45384;-76
2022/04/03 12:43:44;;;;;;;;;3.33;3.33;;;;;;;;5101553;27;45343;-76
2022/04/03 12:46:09;;;;;;;;;10.00;10.00;;;;;;;;5101481;27;45532;-77
2022/04/03 12:48:35;;;;;;;;;6.00;6.00;;;;;;;;5101397;27;45414;-76
2022/04/03 12:51:06;;;;;;;;;3.00;3.00;;;;;;;;5101465;27;45486;-76
2022/04/03 12:53:32;;;;;;;;;6.00;5.00;;;;;;;;5100254;27;45167;-74
2022/04/03 12:55:58;;;;;;;;;8.00;8.00;;;;;;;;5099667;27;46963;-75
2022/04/03 12:58:27;;;;;;;;;6.00;6.00;;;;;;;;5099881;27;46010;-75
2022/04/03 13:00:55;;;;;;;;;7.33;6.00;;;;;;;;5093693;27;45476;-75
2022/04/03 13:03:33;;;;;;;;;13.00;8.00;;;;;;;;5099242;27;46385;-75
2022/04/03 13:06:04;;;;;;;;;6.00;5.00;;;;;;;;5099362;27;47666;-75
2022/04/03 13:08:46;;;;;;;;;7.33;7.00;;;;;;;;5089020;27;45437;-76
2022/04/03 13:11:23;;;;;;;;;9.33;8.00;;;;;;;;5080346;27;45552;-75
2022/04/03 13:13:48;;;;;;;;;5.00;5.00;;;;;;;;5086617;27;45346;-76
2022/04/03 13:16:14;;;;;;;;;6.00;6.00;;;;;;;;5114757;27;45325;-75
2022/04/03 13:18:39;;;;;;;;;4.00;4.00;;;;;;;;5120674;27;45426;-77
2022/04/03 13:21:04;;;;;;;;;4.00;3.00;;;;;;;;5118512;27;45329;-75
2022/04/03 13:23:29;;;;;;;;;6.00;6.00;;;;;;;;5080098;27;45583;-76
2022/04/03 13:25:56;;;;;;;;;8.00;8.00;;;;;;;;5078718;27;45444;-76
2022/04/03 13:28:21;;;;;;;;;5.33;5.33;;;;;;;;5077682;27;45408;-76
2022/04/03 13:30:47;;;;;;;;;4.00;4.00;;;;;;;;5077664;28;45393;-76
2022/04/03 13:33:12;;;;;;;;;7.33;5.67;;;;;;;;5078974;27;45501;-75
2022/04/03 13:35:38;;;;;;;;;5.00;5.00;;;;;;;;5080416;27;45326;-76
2022/04/03 13:38:10;;;;;;;;;4.67;4.67;;;;;;;;5078267;28;45279;-76
2022/04/03 13:40:36;;;;;;;;;5.67;5.67;;;;;;;;5080581;27;45361;-76
2022/04/03 13:43:02;;;;;;;;;2.00;2.00;;;;;;;;5078926;27;45550;-77
2022/04/03 13:48:11;;;;;;;;;5.67;4.33;;;;;;;;5079905;28;45389;-76
2022/04/03 13:50:37;;;;;;;;;4.33;4.33;;;;;;;;5080274;27;45768;-75
2022/04/03 13:53:03;;;;;;;;;5.00;5.00;;;;;;;;5079049;28;45424;-76
2022/04/03 13:55:28;;;;;;;;;5.00;5.00;;;;;;;;5080044;28;45323;-76
2022/04/03 13:57:53;;;;;;;;;8.33;7.00;;;;;;;;5079365;28;45114;-75
2022/04/03 14:00:20;;;;;;;;;6.67;6.00;;;;;;;;5078083;28;45484;-77
2022/04/03 14:02:45;;;;;;;;;5.67;5.00;;;;;;;;5080135;27;45508;-76
2022/04/03 14:05:10;;;;;;;;;5.00;5.00;;;;;;;;5080208;28;45365;-76
2022/04/03 14:07:36;;;;;;;;;7.33;6.00;;;;;;;;5079100;27;45325;-75
2022/04/03 14:10:01;;;;;;;;;7.67;7.67;;;;;;;;5079252;28;45332;-76
2022/04/03 14:12:26;;;;;;;;;5.00;5.00;;;;;;;;5078599;28;46073;-77
2022/04/03 14:14:51;;;;;;;;;4.33;3.67;;;;;;;;5085280;27;45296;-76
2022/04/03 14:17:17;;;;;;;;;7.00;7.00;;;;;;;;5119818;27;45732;-75
2022/04/03 14:19:42;;;;;;;;;10.00;10.00;;;;;;;;5120952;27;45272;-76
2022/04/03 14:22:07;;;;;;;;;9.00;9.00;;;;;;;;5119109;27;46471;-74
2022/04/03 14:24:32;;;;;;;;;6.00;6.00;;;;;;;;5120545;27;46166;-74